createdAt,value
2018-06-02T00:01:50.371Z,5.57
2018-06-02T00:04:17.531Z,5.00
2018-06-02T00:06:43.783Z,5.27
2018-06-02T00:09:11.646Z,6.30
2018-06-02T00:11:37.984Z,5.10
2018-06-02T00:14:04.240Z,5.40
2018-06-02T00:16:30.582Z,5.17
2018-06-02T00:18:57.633Z,5.37
2018-06-02T00:21:23.947Z,5.10
2018-06-02T00:23:50.241Z,6.37
2018-06-02T00:26:17.418Z,5.53
2018-06-02T00:28:43.903Z,5.53
2018-06-02T00:31:10.282Z,5.37
2018-06-02T00:33:37.416Z,5.00
2018-06-02T00:36:16.340Z,5.80
2018-06-02T00:38:42.610Z,6.13
2018-06-02T00:41:09.082Z,5.20
2018-06-02T00:43:35.323Z,5.10
2018-06-02T00:46:02.383Z,5.17
2018-06-02T00:48:28.712Z,4.87
2018-06-02T00:50:55.342Z,5.10
2018-06-02T00:53:21.688Z,5.53
2018-06-02T00:55:48.003Z,5.40
2018-06-02T00:58:14.331Z,5.43
2018-06-02T01:00:40.699Z,5.87
2018-06-02T01:03:07.054Z,5.13
2018-06-02T01:05:33.460Z,5.20
2018-06-02T01:07:59.822Z,4.87
2018-06-02T01:10:26.144Z,6.50
2018-06-02T01:12:52.444Z,5.53
2018-06-02T01:15:18.763Z,6.40
2018-06-02T01:17:46.058Z,6.00
2018-06-02T01:20:12.341Z,5.70
2018-06-02T01:22:38.768Z,6.23
2018-06-02T01:25:05.024Z,5.50
2018-06-02T01:27:31.511Z,6.17
2018-06-02T01:29:57.988Z,6.10
2018-06-02T01:32:25.625Z,7.93
2018-06-02T01:34:52.244Z,6.30
2018-06-02T01:37:19.271Z,6.50
2018-06-02T01:39:46.263Z,5.93
2018-06-02T01:42:12.602Z,5.90
2018-06-02T01:44:39.028Z,7.37
2018-06-02T01:47:05.288Z,6.80
2018-06-02T01:49:31.762Z,6.37
2018-06-02T01:51:58.025Z,6.40
2018-06-02T01:54:24.375Z,5.97
2018-06-02T01:56:50.695Z,5.43
2018-06-02T01:59:17.012Z,5.90
2018-06-02T02:01:43.352Z,5.20
2018-06-02T02:04:10.520Z,5.73
2018-06-02T02:06:36.807Z,6.70
2018-06-02T02:09:03.166Z,5.07
2018-06-02T02:11:29.491Z,5.67
2018-06-02T02:13:55.747Z,6.97
2018-06-02T02:16:22.027Z,7.57
2018-06-02T02:18:49.039Z,7.40
2018-06-02T02:21:15.369Z,8.20
2018-06-02T02:23:41.680Z,8.47
2018-06-02T02:26:07.913Z,8.70
2018-06-02T02:28:34.227Z,7.67
2018-06-02T02:31:00.616Z,9.23
2018-06-02T02:33:26.912Z,7.83
2018-06-02T02:35:53.210Z,7.63
2018-06-02T02:38:19.709Z,9.03
2018-06-02T02:40:45.974Z,8.67
2018-06-02T02:43:12.408Z,6.90
2018-06-02T02:45:38.830Z,6.90
2018-06-02T02:48:05.290Z,6.63
2018-06-02T02:50:32.739Z,7.60
2018-06-02T02:52:59.097Z,7.33
2018-06-02T02:55:25.686Z,7.20
2018-06-02T02:57:52.119Z,7.37
2018-06-02T03:00:19.329Z,7.83
2018-06-02T03:02:45.860Z,8.07
2018-06-02T03:05:12.174Z,9.10
2018-06-02T03:07:38.416Z,7.83
2018-06-02T03:10:04.738Z,8.07
2018-06-02T03:12:31.067Z,6.60
2018-06-02T03:14:57.436Z,7.67
2018-06-02T03:17:23.772Z,6.37
2018-06-02T03:19:50.161Z,6.07
2018-06-02T03:22:16.481Z,7.13
2018-06-02T03:24:42.794Z,8.30
2018-06-02T03:27:09.232Z,7.37
2018-06-02T03:29:35.666Z,7.70
2018-06-02T03:32:04.596Z,8.53
2018-06-02T03:34:30.997Z,7.33
2018-06-02T03:36:57.227Z,6.63
2018-06-02T03:39:24.242Z,7.13
2018-06-02T03:41:51.691Z,6.90
2018-06-02T03:44:18.743Z,7.30
2018-06-02T03:46:47.664Z,7.30
2018-06-02T03:49:14.015Z,8.00
2018-06-02T03:51:40.446Z,7.40
2018-06-02T03:54:06.912Z,7.60
2018-06-02T03:56:33.275Z,7.63
2018-06-02T03:58:59.698Z,7.50
2018-06-02T04:01:25.938Z,6.73
2018-06-02T04:03:52.246Z,7.43
2018-06-02T04:06:20.503Z,7.47
2018-06-02T04:08:46.814Z,7.80
2018-06-02T04:11:13.152Z,6.83
2018-06-02T04:13:40.104Z,6.97
2018-06-02T04:16:06.831Z,7.20
2018-06-02T04:18:33.403Z,7.03
2018-06-02T04:20:59.699Z,7.70
2018-06-02T04:23:26.130Z,10.17
2018-06-02T04:25:52.838Z,11.20
2018-06-02T04:28:19.266Z,10.93
2018-06-02T04:30:45.579Z,12.57
2018-06-02T04:33:12.295Z,11.80
2018-06-02T04:35:38.625Z,10.60
2018-06-02T04:38:05.010Z,12.00
2018-06-02T04:40:32.380Z,10.90
2018-06-02T04:42:58.727Z,11.60
2018-06-02T04:45:25.118Z,11.70
2018-06-02T04:47:51.432Z,12.30
2018-06-02T04:50:17.716Z,12.20
2018-06-02T04:52:44.017Z,12.10
2018-06-02T04:55:10.348Z,11.33
2018-06-02T04:57:36.696Z,11.20
2018-06-02T05:00:10.599Z,12.13
2018-06-02T05:02:37.593Z,11.73
2018-06-02T05:05:03.901Z,12.23
2018-06-02T05:07:31.110Z,10.83
2018-06-02T05:09:57.453Z,11.57
2018-06-02T05:12:23.890Z,10.97
2018-06-02T05:14:50.209Z,11.43
2018-06-02T05:17:17.560Z,11.53
2018-06-02T05:19:44.672Z,12.17
2018-06-02T05:22:12.272Z,12.43
2018-06-02T05:24:38.875Z,11.50
2018-06-02T05:27:05.262Z,13.00
2018-06-02T05:29:32.300Z,11.83
2018-06-02T05:37:54.106Z,11.23
2018-06-02T05:43:13.900Z,10.40
2018-06-02T05:45:43.772Z,9.90
2018-06-02T05:48:21.395Z,9.07
2018-06-02T05:50:47.972Z,10.73
2018-06-02T05:53:15.348Z,11.30
2018-06-02T05:55:41.647Z,11.20
2018-06-02T05:58:07.936Z,9.43
2018-06-02T06:00:34.551Z,10.13
2018-06-02T06:05:35.559Z,10.83
2018-06-02T06:08:03.823Z,9.97
2018-06-02T06:10:30.419Z,9.00
2018-06-02T06:12:58.584Z,9.47
2018-06-02T06:15:25.531Z,10.83
2018-06-02T06:17:52.756Z,8.27
2018-06-02T06:20:19.179Z,9.67
2018-06-02T06:22:45.433Z,9.13
2018-06-02T06:25:15.226Z,8.70
2018-06-02T06:27:44.102Z,9.63
2018-06-02T06:30:30.463Z,9.00
2018-06-02T06:32:57.539Z,9.40
2018-06-02T06:35:23.934Z,10.30
2018-06-02T06:37:51.228Z,8.40
2018-06-02T06:40:26.989Z,9.00
2018-06-02T06:42:53.867Z,9.23
2018-06-02T06:45:21.216Z,9.23
2018-06-02T06:47:47.534Z,8.47
2018-06-02T06:50:13.890Z,7.70
2018-06-02T06:52:40.368Z,8.50
2018-06-02T06:55:07.132Z,8.27
2018-06-02T06:57:33.799Z,7.40
2018-06-02T07:00:01.070Z,9.90
2018-06-02T07:02:27.742Z,9.80
2018-06-02T07:04:55.328Z,7.40
2018-06-02T07:07:22.239Z,7.23
2018-06-02T07:09:51.394Z,9.97
2018-06-02T07:12:17.972Z,7.93
2018-06-02T07:17:16.761Z,8.57
2018-06-02T07:19:49.489Z,8.67
2018-06-02T07:22:15.937Z,7.43
2018-06-02T07:24:44.635Z,8.80
2018-06-02T07:27:14.714Z,9.10
2018-06-02T07:32:25.592Z,10.17
2018-06-02T07:34:53.814Z,9.30
2018-06-02T07:37:26.303Z,9.90
2018-06-02T07:39:53.200Z,10.50
2018-06-02T07:42:26.409Z,8.87
2018-06-02T07:44:54.286Z,9.80
2018-06-02T07:47:26.313Z,9.57
2018-06-02T07:49:54.649Z,9.47
2018-06-02T07:52:26.168Z,9.67
2018-06-02T07:54:54.529Z,9.33
2018-06-02T07:57:21.710Z,9.73
2018-06-02T07:59:49.511Z,9.70
2018-06-02T08:02:16.260Z,12.90
2018-06-02T08:04:43.859Z,10.60
2018-06-02T08:07:11.870Z,10.30
2018-06-02T08:09:50.489Z,10.40
2018-06-02T08:12:18.861Z,9.77
2018-06-02T08:14:56.551Z,8.77
2018-06-02T08:17:25.506Z,10.30
2018-06-02T08:19:55.802Z,9.57
2018-06-02T08:22:26.957Z,8.77
2018-06-02T08:24:55.630Z,9.93
2018-06-02T08:27:28.003Z,10.37
2018-06-02T08:29:54.274Z,9.50
2018-06-02T08:32:25.829Z,10.50
2018-06-02T08:34:53.221Z,9.97
2018-06-02T08:37:19.711Z,10.97
2018-06-02T08:39:46.110Z,10.63
2018-06-02T08:42:26.318Z,10.10
2018-06-02T08:44:57.716Z,10.97
2018-06-02T08:47:24.307Z,12.30
2018-06-02T08:49:51.566Z,10.93
2018-06-02T08:52:18.729Z,11.67
2018-06-02T08:54:45.725Z,9.73
2018-06-02T08:57:25.520Z,9.97
2018-06-02T08:59:55.777Z,11.43
2018-06-02T09:02:27.390Z,11.10
2018-06-02T09:04:57.405Z,10.80
2018-06-02T09:07:27.041Z,10.33
2018-06-02T09:09:56.419Z,10.53
2018-06-02T09:12:26.897Z,9.40
2018-06-02T09:14:55.767Z,9.70
2018-06-02T09:17:26.645Z,10.23
2018-06-02T09:19:55.824Z,10.40
2018-06-02T09:22:26.496Z,7.50
2018-06-02T09:24:56.311Z,7.30
2018-06-02T09:27:24.128Z,8.23
2018-06-02T09:29:50.581Z,8.30
2018-06-02T09:32:19.051Z,8.83
2018-06-02T09:34:45.639Z,8.40
2018-06-02T09:37:12.017Z,9.77
2018-06-02T09:39:52.194Z,8.63
2018-06-02T09:42:19.317Z,8.30
2018-06-02T09:44:45.678Z,7.33
2018-06-02T09:47:11.919Z,6.10
2018-06-02T09:49:38.192Z,5.87
2018-06-02T09:52:05.238Z,6.43
2018-06-02T09:54:31.675Z,6.53
2018-06-02T09:56:58.130Z,6.30
2018-06-02T09:59:24.367Z,6.60
2018-06-02T10:01:50.703Z,6.03
2018-06-02T10:04:16.966Z,6.73
2018-06-02T10:06:43.223Z,5.60
2018-06-02T10:09:10.272Z,5.90
2018-06-02T10:11:36.622Z,5.87
2018-06-02T10:14:03.083Z,6.07
2018-06-02T10:16:29.568Z,7.47
2018-06-02T10:18:55.894Z,6.20
2018-06-02T10:21:22.195Z,5.60
2018-06-02T10:23:48.433Z,6.00
2018-06-02T10:26:14.976Z,5.73
2018-06-02T10:28:41.303Z,5.77
2018-06-02T10:31:07.608Z,5.00
2018-06-02T10:33:34.095Z,6.00
2018-06-02T10:36:00.599Z,5.30
2018-06-02T10:38:27.027Z,5.67
2018-06-02T10:40:53.316Z,5.83
2018-06-02T10:43:19.752Z,5.40
2018-06-02T10:45:45.988Z,5.30
2018-06-02T10:48:12.243Z,4.40
2018-06-02T10:50:38.530Z,5.00
2018-06-02T10:53:04.825Z,5.27
2018-06-02T10:55:31.128Z,4.73
2018-06-02T10:57:58.439Z,4.50
2018-06-02T11:00:24.764Z,4.60
2018-06-02T11:02:51.037Z,4.60
2018-06-02T11:05:17.360Z,4.77
2018-06-02T11:07:43.636Z,4.73
2018-06-02T11:10:10.635Z,4.40
2018-06-02T11:12:36.879Z,4.47
2018-06-02T11:15:03.248Z,4.30
2018-06-02T11:17:29.613Z,4.40
2018-06-02T11:19:55.981Z,5.10
2018-06-02T11:22:22.219Z,4.70
2018-06-02T11:24:48.518Z,4.30
2018-06-02T11:27:14.847Z,4.57
2018-06-02T11:29:41.196Z,4.60
2018-06-02T11:32:07.426Z,4.23
2018-06-02T11:34:33.736Z,4.10
2018-06-02T11:37:00.076Z,3.67
2018-06-02T11:39:26.383Z,4.13
2018-06-02T11:41:52.619Z,4.10
2018-06-02T11:44:19.097Z,4.10
2018-06-02T11:46:45.353Z,4.20
2018-06-02T11:49:11.599Z,4.47
2018-06-02T11:51:37.876Z,3.60
2018-06-02T11:54:04.158Z,3.40
2018-06-02T11:56:30.562Z,3.77
2018-06-02T11:58:56.900Z,4.17
2018-06-02T12:01:24.864Z,4.03
2018-06-02T12:03:54.997Z,3.70
2018-06-02T12:06:24.255Z,4.10
2018-06-02T12:08:54.520Z,3.97
2018-06-02T12:11:24.401Z,3.50
2018-06-02T12:13:50.747Z,4.00
2018-06-02T14:06:33.966Z,1.97
2018-06-02T14:09:01.354Z,3.87
2018-06-02T14:11:27.735Z,2.00
2018-06-02T14:13:54.011Z,2.10
2018-06-02T14:16:22.102Z,1.67
2018-06-02T14:18:49.261Z,2.40
2018-06-02T14:21:16.323Z,3.20
2018-06-02T14:23:43.096Z,2.30
2018-06-02T14:26:17.908Z,2.13
2018-06-02T14:28:45.600Z,2.13
2018-06-02T14:31:13.050Z,2.03
2018-06-02T14:33:39.485Z,2.80
2018-06-02T14:36:09.491Z,2.47
2018-06-02T14:38:37.190Z,2.80
2018-06-02T14:41:08.361Z,2.53
2018-06-02T14:43:38.623Z,2.27
2018-06-02T14:46:11.949Z,2.47
2018-06-02T14:51:25.531Z,2.30
2018-06-02T14:53:52.017Z,2.60
2018-06-02T14:56:22.192Z,2.60
2018-06-02T14:58:49.569Z,2.27
2018-06-02T15:01:20.821Z,3.90
2018-06-02T15:03:54.238Z,3.20
2018-06-02T15:06:23.496Z,3.23
2018-06-02T15:08:49.930Z,2.30
2018-06-02T15:11:19.209Z,2.80
2018-06-02T15:13:48.610Z,2.30
2018-06-02T15:16:16.238Z,4.23
2018-06-02T15:18:42.904Z,4.30
2018-06-02T15:21:09.204Z,2.50
2018-06-02T15:23:35.820Z,2.50
2018-06-02T15:26:02.201Z,3.30
2018-06-02T15:28:28.467Z,4.23
2018-06-02T15:30:54.804Z,5.40
2018-06-02T15:33:21.031Z,2.73
2018-06-02T15:35:47.358Z,2.40
2018-06-02T15:38:14.622Z,2.70
2018-06-02T15:40:40.972Z,2.60
2018-06-02T15:43:07.408Z,2.40
2018-06-02T15:45:53.933Z,1.80
2018-06-02T15:48:20.402Z,2.00
2018-06-02T15:50:54.885Z,1.97
2018-06-02T15:53:24.635Z,2.23
2018-06-02T15:55:55.053Z,2.50
2018-06-02T15:58:25.367Z,2.13
2018-06-02T16:00:53.482Z,2.33
2018-06-02T16:03:25.905Z,2.30
2018-06-02T16:05:56.362Z,2.07
2018-06-02T16:08:23.839Z,2.33
2018-06-02T16:10:54.057Z,2.10
2018-06-02T16:13:25.135Z,2.70
2018-06-02T16:15:54.774Z,2.40
2018-06-02T16:18:21.186Z,1.90
2018-06-02T16:20:48.586Z,2.70
2018-06-02T16:23:24.521Z,2.53
2018-06-02T16:26:00.850Z,2.00
2018-06-02T16:28:28.011Z,1.73
2018-06-02T16:30:54.384Z,2.00
2018-06-02T16:33:21.367Z,1.73
2018-06-02T16:35:55.243Z,1.90
2018-06-02T16:38:22.283Z,2.07
2018-06-02T16:40:54.729Z,2.03
2018-06-02T16:43:24.830Z,1.90
2018-06-02T16:45:58.087Z,1.80
2018-06-02T16:48:24.425Z,2.20
2018-06-02T16:50:52.049Z,1.80
2018-06-02T16:53:32.018Z,2.00
2018-06-02T16:55:59.121Z,1.87
2018-06-02T16:58:25.447Z,1.80
2018-06-02T17:00:54.967Z,1.70
2018-06-02T17:03:25.570Z,2.40
2018-06-02T17:05:55.847Z,2.00
2018-06-02T17:08:23.840Z,2.30
2018-06-02T17:10:50.183Z,2.07
2018-06-02T17:13:16.479Z,2.40
2018-06-02T17:15:42.933Z,2.37
2018-06-02T17:20:51.037Z,2.20
2018-06-02T17:23:17.740Z,2.97
2018-06-02T17:25:44.186Z,2.90
2018-06-02T17:28:13.290Z,2.83
2018-06-02T17:30:42.962Z,2.80
2018-06-02T17:33:09.274Z,3.63
2018-06-02T17:35:35.721Z,3.13
2018-06-02T17:38:02.048Z,2.60
2018-06-02T17:40:29.136Z,3.23
2018-06-02T17:42:55.581Z,3.23
2018-06-02T17:45:25.123Z,2.70
2018-06-02T17:47:53.361Z,2.90
2018-06-02T17:50:24.649Z,5.47
2018-06-02T17:52:54.924Z,3.07
2018-06-02T17:55:21.195Z,3.80
2018-06-02T17:57:51.875Z,3.47
2018-06-02T18:00:24.756Z,2.70
2018-06-02T18:02:51.491Z,2.70
2018-06-02T18:05:19.018Z,2.60
2018-06-02T18:07:46.480Z,2.20
2018-06-02T18:10:15.029Z,3.07
2018-06-02T18:12:54.306Z,3.90
2018-06-02T18:15:24.844Z,3.10
2018-06-02T18:17:54.232Z,3.00
2018-06-02T18:20:24.537Z,2.80
2018-06-02T18:22:54.848Z,2.90
2018-06-02T18:25:24.861Z,3.20
2018-06-02T18:27:54.692Z,2.77
2018-06-02T18:30:24.980Z,3.40
2018-06-02T18:32:55.376Z,3.17
2018-06-02T18:35:25.681Z,3.90
2018-06-02T18:37:56.190Z,2.90
2018-06-02T18:43:26.629Z,2.33
2018-06-02T18:45:55.111Z,3.37
2018-06-02T18:48:25.475Z,2.80
2018-06-02T18:50:54.580Z,3.47
2018-06-02T18:53:24.897Z,3.33
2018-06-02T18:55:54.353Z,2.97
2018-06-02T18:58:24.713Z,3.07
2018-06-02T19:00:57.342Z,4.23
2018-06-02T19:03:24.880Z,3.53
2018-06-02T19:05:55.234Z,3.07
2018-06-02T19:08:25.767Z,4.60
2018-06-02T19:10:55.729Z,3.80
2018-06-02T19:13:27.858Z,3.60
2018-06-02T19:15:55.128Z,4.10
2018-06-02T19:18:25.725Z,3.57
2018-06-02T19:20:55.632Z,3.87
2018-06-02T19:23:26.439Z,3.97
2018-06-02T19:25:55.951Z,3.77
2018-06-02T19:28:25.124Z,3.80
2018-06-02T19:30:55.028Z,50.37
2018-06-02T19:33:25.861Z,7.83
2018-06-02T19:35:56.104Z,9.07
2018-06-02T19:38:25.137Z,5.27
2018-06-02T19:40:55.143Z,9.50
2018-06-02T19:43:21.690Z,21.40
2018-06-02T19:45:55.100Z,10.80
2018-06-02T19:48:25.786Z,8.70
2018-06-02T19:50:53.107Z,5.93
2018-06-02T19:53:27.258Z,5.93
2018-06-02T19:55:53.959Z,5.87
2018-06-02T19:58:21.124Z,3.83
2018-06-02T20:00:48.225Z,4.97
2018-06-02T20:03:14.779Z,5.80
2018-06-02T20:05:43.182Z,6.37
2018-06-02T20:08:10.391Z,5.17
2018-06-02T20:10:38.560Z,7.90
2018-06-02T20:13:12.669Z,5.20
2018-06-02T20:15:40.724Z,8.23
2018-06-02T20:18:09.700Z,9.57
2018-06-02T20:20:40.963Z,5.90
2018-06-02T20:23:20.043Z,4.40
2018-06-02T20:25:49.980Z,7.20
2018-06-02T20:28:21.156Z,4.60
2018-06-02T20:30:53.322Z,5.10
2018-06-02T20:33:24.537Z,5.00
2018-06-02T20:35:52.447Z,5.50
2018-06-02T20:38:19.996Z,4.27
2018-06-02T20:40:49.681Z,4.73
2018-06-02T20:43:20.665Z,4.67
2018-06-02T20:45:47.990Z,4.90
2018-06-02T20:48:14.735Z,4.60
2018-06-02T20:50:42.924Z,4.60
2018-06-02T20:53:09.931Z,4.60
2018-06-02T20:55:36.808Z,4.93
2018-06-02T20:58:05.067Z,5.40
2018-06-02T21:03:12.365Z,4.43
2018-06-02T21:05:52.885Z,6.23
2018-06-02T21:08:24.429Z,4.70
2018-06-02T21:10:54.149Z,6.17
2018-06-02T21:13:24.471Z,7.23
2018-06-02T21:15:56.944Z,5.23
2018-06-02T21:18:25.522Z,5.63
2018-06-02T21:20:54.959Z,5.80
2018-06-02T21:23:24.743Z,5.30
2018-06-02T21:25:54.575Z,5.70
2018-06-02T21:28:25.275Z,5.80
2018-06-02T21:30:54.959Z,5.87
2018-06-02T21:33:27.471Z,5.70
2018-06-02T21:35:55.488Z,6.03
2018-06-02T21:38:25.354Z,6.10
2018-06-02T21:40:55.921Z,5.60
2018-06-02T21:43:22.733Z,5.40
2018-06-02T21:45:49.492Z,6.47
2018-06-02T21:48:29.314Z,5.70
2018-06-02T21:51:16.045Z,5.57
2018-06-02T21:53:56.120Z,6.27
2018-06-02T21:56:24.992Z,6.00
2018-06-02T21:58:56.097Z,7.07
2018-06-02T22:01:27.154Z,6.03
2018-06-02T22:03:55.207Z,6.07
2018-06-02T22:06:24.664Z,5.67
2018-06-02T22:08:55.352Z,6.40
2018-06-02T22:11:26.020Z,5.90
2018-06-02T22:13:55.092Z,5.90
2018-06-02T22:16:24.360Z,5.93
2018-06-02T22:18:55.060Z,5.67
2018-06-02T22:21:24.958Z,6.00
2018-06-02T22:23:54.446Z,6.87
2018-06-02T22:26:24.919Z,6.50
2018-06-02T22:28:53.705Z,6.70
2018-06-02T22:31:24.072Z,6.53
2018-06-02T22:33:54.669Z,6.27
2018-06-02T22:36:26.841Z,6.60
2018-06-02T22:38:55.890Z,7.00
2018-06-02T22:41:26.020Z,9.90
2018-06-02T22:43:53.166Z,6.60
2018-06-02T22:46:20.565Z,7.27
2018-06-02T22:48:46.944Z,6.97
2018-06-02T22:51:15.838Z,6.67
2018-06-02T22:53:45.068Z,6.87
2018-06-02T22:56:11.321Z,6.37
2018-06-02T22:58:41.377Z,7.40
2018-06-02T23:01:08.305Z,6.83
2018-06-02T23:03:34.630Z,6.83
2018-06-02T23:06:01.003Z,7.17
2018-06-02T23:08:27.739Z,6.87
2018-06-02T23:10:57.443Z,6.37
2018-06-02T23:13:29.663Z,6.73
2018-06-02T23:15:56.311Z,7.00
2018-06-02T23:18:23.704Z,6.87
2018-06-02T23:20:51.237Z,7.17
2018-06-02T23:23:18.581Z,7.93
2018-06-02T23:25:48.242Z,7.50
2018-06-02T23:28:30.331Z,7.47
2018-06-02T23:30:57.998Z,7.97
2018-06-02T23:33:25.162Z,7.73
2018-06-02T23:35:51.585Z,7.47
2018-06-02T23:38:18.125Z,7.40
2018-06-02T23:40:45.841Z,7.33
2018-06-02T23:43:18.842Z,7.57
2018-06-02T23:48:53.147Z,6.63
2018-06-02T23:51:20.178Z,7.50
2018-06-02T23:53:46.639Z,6.80
2018-06-02T23:56:13.422Z,7.20
2018-06-02T23:58:40.811Z,6.00
